sensor_id;sensor_type;location;lat;lon;timestamp;temperature;humidity
1578;DHT22;57623;53.608;10.004;2023-09-18T00:01:58;19.20;99.90
1578;DHT22;57623;53.608;10.004;2023-09-18T00:04:26;19.20;99.90
1578;DHT22;57623;53.608;10.004;2023-09-18T00:06:54;19.20;99.90
1578;DHT22;57623;53.608;10.004;2023-09-18T00:09:22;19.20;99.90
1578;DHT22;57623;53.608;10.004;2023-09-18T00:11:50;19.20;99.90
1578;DHT22;57623;53.608;10.004;2023-09-18T00:14:19;19.10;99.90
1578;DHT22;57623;53.608;10.004;2023-09-18T00:16:49;19.10;99.90
1578;DHT22;57623;53.608;10.004;2023-09-18T00:19:25;19.10;99.90
1578;DHT22;57623;53.608;10.004;2023-09-18T00:21:53;19.10;99.90
1578;DHT22;57623;53.608;10.004;2023-09-18T00:24:21;19.10;99.90
1578;DHT22;57623;53.608;10.004;2023-09-18T00:26:49;19.10;99.90
1578;DHT22;57623;53.608;10.004;2023-09-18T00:29:19;19.10;99.90
1578;DHT22;57623;53.608;10.004;2023-09-18T00:31:49;19.10;99.90
1578;DHT22;57623;53.608;10.004;2023-09-18T00:34:17;19.10;99.90
1578;DHT22;57623;53.608;10.004;2023-09-18T00:36:45;19.10;99.90
1578;DHT22;57623;53.608;10.004;2023-09-18T00:39:13;19.10;99.90
1578;DHT22;57623;53.608;10.004;2023-09-18T00:41:42;19.10;99.90
1578;DHT22;57623;53.608;10.004;2023-09-18T00:44:10;19.00;99.90
1578;DHT22;57623;53.608;10.004;2023-09-18T00:46:38;19.00;99.90
1578;DHT22;57623;53.608;10.004;2023-09-18T00:49:08;19.00;99.90
1578;DHT22;57623;53.608;10.004;2023-09-18T00:51:36;19.00;99.90
1578;DHT22;57623;53.608;10.004;2023-09-18T00:54:04;19.00;99.90
1578;DHT22;57623;53.608;10.004;2023-09-18T00:56:32;19.00;99.90
1578;DHT22;57623;53.608;10.004;2023-09-18T00:59:01;19.00;99.90
1578;DHT22;57623;53.608;10.004;2023-09-18T01:01:32;18.90;99.90
1578;DHT22;57623;53.608;10.004;2023-09-18T01:04:00;18.90;99.90
1578;DHT22;57623;53.608;10.004;2023-09-18T01:06:30;18.90;99.90
1578;DHT22;57623;53.608;10.004;2023-09-18T01:08:58;18.90;99.90
1578;DHT22;57623;53.608;10.004;2023-09-18T01:11:33;18.90;99.90
1578;DHT22;57623;53.608;10.004;2023-09-18T01:14:10;18.90;99.90
1578;DHT22;57623;53.608;10.004;2023-09-18T01:16:47;18.90;99.90
1578;DHT22;57623;53.608;10.004;2023-09-18T01:19:17;18.80;99.90
1578;DHT22;57623;53.608;10.004;2023-09-18T01:22:03;18.70;99.90
1578;DHT22;57623;53.608;10.004;2023-09-18T01:24:33;18.70;99.90
1578;DHT22;57623;53.608;10.004;2023-09-18T01:27:01;18.70;99.90
1578;DHT22;57623;53.608;10.004;2023-09-18T01:29:29;18.70;99.90
1578;DHT22;57623;53.608;10.004;2023-09-18T01:31:57;18.70;99.90
1578;DHT22;57623;53.608;10.004;2023-09-18T01:34:28;18.60;99.90
1578;DHT22;57623;53.608;10.004;2023-09-18T01:37:00;18.60;99.90
1578;DHT22;57623;53.608;10.004;2023-09-18T01:39:29;18.60;99.90
1578;DHT22;57623;53.608;10.004;2023-09-18T01:42:01;18.50;99.90
1578;DHT22;57623;53.608;10.004;2023-09-18T01:44:31;18.50;99.90
1578;DHT22;57623;53.608;10.004;2023-09-18T01:47:03;18.40;99.90
1578;DHT22;57623;53.608;10.004;2023-09-18T01:49:33;18.50;99.90
1578;DHT22;57623;53.608;10.004;2023-09-18T01:52:01;18.50;99.90
1578;DHT22;57623;53.608;10.004;2023-09-18T01:54:30;18.50;99.90
1578;DHT22;57623;53.608;10.004;2023-09-18T01:57:00;18.50;99.90
1578;DHT22;57623;53.608;10.004;2023-09-18T01:59:29;18.50;99.90
1578;DHT22;57623;53.608;10.004;2023-09-18T02:01:58;18.40;99.90
1578;DHT22;57623;53.608;10.004;2023-09-18T02:04:27;18.50;99.90
1578;DHT22;57623;53.608;10.004;2023-09-18T02:07:15;18.40;99.90
1578;DHT22;57623;53.608;10.004;2023-09-18T02:09:43;18.40;99.90
1578;DHT22;57623;53.608;10.004;2023-09-18T02:12:13;18.30;99.90
1578;DHT22;57623;53.608;10.004;2023-09-18T02:14:44;18.30;99.90
1578;DHT22;57623;53.608;10.004;2023-09-18T02:17:12;18.40;99.90
1578;DHT22;57623;53.608;10.004;2023-09-18T02:19:40;18.30;99.90
1578;DHT22;57623;53.608;10.004;2023-09-18T02:22:09;18.30;99.90
1578;DHT22;57623;53.608;10.004;2023-09-18T02:24:37;18.30;99.90
1578;DHT22;57623;53.608;10.004;2023-09-18T02:27:06;18.30;99.90
1578;DHT22;57623;53.608;10.004;2023-09-18T02:29:35;18.30;99.90
1578;DHT22;57623;53.608;10.004;2023-09-18T02:32:03;18.30;99.90
1578;DHT22;57623;53.608;10.004;2023-09-18T02:34:31;18.20;99.90
1578;DHT22;57623;53.608;10.004;2023-09-18T02:37:00;18.20;99.90
1578;DHT22;57623;53.608;10.004;2023-09-18T02:39:28;18.20;99.90
1578;DHT22;57623;53.608;10.004;2023-09-18T02:41:56;18.20;99.90
1578;DHT22;57623;53.608;10.004;2023-09-18T02:44:24;18.20;99.90
1578;DHT22;57623;53.608;10.004;2023-09-18T02:46:53;18.10;99.90
1578;DHT22;57623;53.608;10.004;2023-09-18T02:49:21;18.10;99.90
1578;DHT22;57623;53.608;10.004;2023-09-18T02:51:49;18.10;99.90
1578;DHT22;57623;53.608;10.004;2023-09-18T02:54:17;18.10;99.90
1578;DHT22;57623;53.608;10.004;2023-09-18T02:56:45;18.10;99.90
1578;DHT22;57623;53.608;10.004;2023-09-18T02:59:13;18.10;99.90
1578;DHT22;57623;53.608;10.004;2023-09-18T03:01:41;18.10;99.90
1578;DHT22;57623;53.608;10.004;2023-09-18T03:04:10;18.10;99.90
1578;DHT22;57623;53.608;10.004;2023-09-18T03:06:38;18.10;99.90
1578;DHT22;57623;53.608;10.004;2023-09-18T03:09:07;18.10;99.90
1578;DHT22;57623;53.608;10.004;2023-09-18T03:11:35;18.10;99.90
1578;DHT22;57623;53.608;10.004;2023-09-18T03:14:03;18.10;99.90
1578;DHT22;57623;53.608;10.004;2023-09-18T03:16:31;18.10;99.90
1578;DHT22;57623;53.608;10.004;2023-09-18T03:19:00;18.00;99.90
1578;DHT22;57623;53.608;10.004;2023-09-18T03:21:29;18.00;99.90
1578;DHT22;57623;53.608;10.004;2023-09-18T03:24:00;17.90;99.90
1578;DHT22;57623;53.608;10.004;2023-09-18T03:26:28;18.00;99.90
1578;DHT22;57623;53.608;10.004;2023-09-18T03:28:56;17.90;99.90
1578;DHT22;57623;53.608;10.004;2023-09-18T03:31:24;17.90;99.90
1578;DHT22;57623;53.608;10.004;2023-09-18T03:33:52;17.80;99.90
1578;DHT22;57623;53.608;10.004;2023-09-18T03:36:21;17.80;99.90
1578;DHT22;57623;53.608;10.004;2023-09-18T03:38:51;17.80;99.90
1578;DHT22;57623;53.608;10.004;2023-09-18T03:41:19;17.80;99.90
1578;DHT22;57623;53.608;10.004;2023-09-18T03:43:47;17.80;99.90
1578;DHT22;57623;53.608;10.004;2023-09-18T03:46:16;17.80;99.90
1578;DHT22;57623;53.608;10.004;2023-09-18T03:48:45;17.80;99.90
1578;DHT22;57623;53.608;10.004;2023-09-18T03:51:13;17.80;99.90
1578;DHT22;57623;53.608;10.004;2023-09-18T03:53:43;17.80;99.90
1578;DHT22;57623;53.608;10.004;2023-09-18T03:56:12;17.90;99.90
1578;DHT22;57623;53.608;10.004;2023-09-18T03:58:40;17.90;99.90
1578;DHT22;57623;53.608;10.004;2023-09-18T04:01:08;17.90;99.90
1578;DHT22;57623;53.608;10.004;2023-09-18T04:03:36;17.90;99.90
1578;DHT22;57623;53.608;10.004;2023-09-18T04:06:04;17.80;99.90
1578;DHT22;57623;53.608;10.004;2023-09-18T04:08:33;17.80;99.90
1578;DHT22;57623;53.608;10.004;2023-09-18T04:11:01;17.80;99.90
1578;DHT22;57623;53.608;10.004;2023-09-18T04:13:32;17.80;99.90
1578;DHT22;57623;53.608;10.004;2023-09-18T04:16:01;17.80;99.90
1578;DHT22;57623;53.608;10.004;2023-09-18T04:18:30;17.80;99.90
1578;DHT22;57623;53.608;10.004;2023-09-18T04:20:59;17.70;99.90
1578;DHT22;57623;53.608;10.004;2023-09-18T04:23:27;17.70;99.90
1578;DHT22;57623;53.608;10.004;2023-09-18T04:25:56;17.70;99.90
1578;DHT22;57623;53.608;10.004;2023-09-18T04:28:25;17.70;99.90
1578;DHT22;57623;53.608;10.004;2023-09-18T04:30:54;17.70;99.90
1578;DHT22;57623;53.608;10.004;2023-09-18T04:33:22;17.70;99.90
1578;DHT22;57623;53.608;10.004;2023-09-18T04:35:52;17.60;99.90
1578;DHT22;57623;53.608;10.004;2023-09-18T04:38:20;17.60;99.90
1578;DHT22;57623;53.608;10.004;2023-09-18T04:40:48;17.50;99.90
1578;DHT22;57623;53.608;10.004;2023-09-18T04:43:16;17.50;99.90
1578;DHT22;57623;53.608;10.004;2023-09-18T04:45:44;17.40;99.90
1578;DHT22;57623;53.608;10.004;2023-09-18T04:48:14;17.50;99.90
1578;DHT22;57623;53.608;10.004;2023-09-18T04:50:42;17.40;99.90
1578;DHT22;57623;53.608;10.004;2023-09-18T04:53:10;17.40;99.90
1578;DHT22;57623;53.608;10.004;2023-09-18T04:55:38;17.40;99.90
1578;DHT22;57623;53.608;10.004;2023-09-18T04:58:06;17.40;99.90
1578;DHT22;57623;53.608;10.004;2023-09-18T05:00:34;17.50;99.90
1578;DHT22;57623;53.608;10.004;2023-09-18T05:03:03;17.50;99.90
1578;DHT22;57623;53.608;10.004;2023-09-18T05:05:33;17.50;99.90
1578;DHT22;57623;53.608;10.004;2023-09-18T05:08:02;17.50;99.90
1578;DHT22;57623;53.608;10.004;2023-09-18T05:10:31;17.50;99.90
1578;DHT22;57623;53.608;10.004;2023-09-18T05:12:59;17.50;99.90
1578;DHT22;57623;53.608;10.004;2023-09-18T05:15:28;17.50;99.90
1578;DHT22;57623;53.608;10.004;2023-09-18T05:17:57;17.50;99.90
1578;DHT22;57623;53.608;10.004;2023-09-18T05:20:27;17.50;99.90
1578;DHT22;57623;53.608;10.004;2023-09-18T05:22:58;17.50;99.90
1578;DHT22;57623;53.608;10.004;2023-09-18T05:25:27;17.50;99.90
1578;DHT22;57623;53.608;10.004;2023-09-18T05:27:59;17.50;99.90
1578;DHT22;57623;53.608;10.004;2023-09-18T05:30:29;17.50;99.90
1578;DHT22;57623;53.608;10.004;2023-09-18T05:32:58;17.50;99.90
1578;DHT22;57623;53.608;10.004;2023-09-18T05:35:31;17.60;99.90
1578;DHT22;57623;53.608;10.004;2023-09-18T05:38:00;17.60;99.90
1578;DHT22;57623;53.608;10.004;2023-09-18T05:40:30;17.60;99.90
1578;DHT22;57623;53.608;10.004;2023-09-18T05:42:58;17.60;99.90
1578;DHT22;57623;53.608;10.004;2023-09-18T05:45:26;17.70;99.90
1578;DHT22;57623;53.608;10.004;2023-09-18T05:47:55;17.70;99.90
1578;DHT22;57623;53.608;10.004;2023-09-18T05:50:29;17.80;99.90
1578;DHT22;57623;53.608;10.004;2023-09-18T05:53:00;17.80;99.90
1578;DHT22;57623;53.608;10.004;2023-09-18T05:55:30;17.80;99.90
1578;DHT22;57623;53.608;10.004;2023-09-18T05:57:59;17.80;99.90
1578;DHT22;57623;53.608;10.004;2023-09-18T06:00:30;17.80;99.90
1578;DHT22;57623;53.608;10.004;2023-09-18T06:02:58;17.80;99.90
1578;DHT22;57623;53.608;10.004;2023-09-18T06:05:27;17.70;99.90
1578;DHT22;57623;53.608;10.004;2023-09-18T06:07:59;17.80;99.90
1578;DHT22;57623;53.608;10.004;2023-09-18T06:10:28;17.80;99.90
1578;DHT22;57623;53.608;10.004;2023-09-18T06:12:56;17.90;99.90
1578;DHT22;57623;53.608;10.004;2023-09-18T06:15:25;17.90;99.90
1578;DHT22;57623;53.608;10.004;2023-09-18T06:17:53;18.00;99.90
1578;DHT22;57623;53.608;10.004;2023-09-18T06:20:21;18.00;99.90
1578;DHT22;57623;53.608;10.004;2023-09-18T06:22:49;18.10;99.90
1578;DHT22;57623;53.608;10.004;2023-09-18T06:25:19;18.10;99.90
1578;DHT22;57623;53.608;10.004;2023-09-18T06:27:47;18.20;99.90
1578;DHT22;57623;53.608;10.004;2023-09-18T06:30:15;18.30;99.90
1578;DHT22;57623;53.608;10.004;2023-09-18T06:32:43;18.50;99.90
1578;DHT22;57623;53.608;10.004;2023-09-18T06:35:11;18.60;99.90
1578;DHT22;57623;53.608;10.004;2023-09-18T06:37:39;18.70;99.90
1578;DHT22;57623;53.608;10.004;2023-09-18T06:40:09;18.70;99.90
1578;DHT22;57623;53.608;10.004;2023-09-18T06:42:38;18.70;99.90
1578;DHT22;57623;53.608;10.004;2023-09-18T06:45:07;18.70;99.90
1578;DHT22;57623;53.608;10.004;2023-09-18T06:47:35;18.70;99.90
1578;DHT22;57623;53.608;10.004;2023-09-18T06:50:04;18.70;99.90
1578;DHT22;57623;53.608;10.004;2023-09-18T06:52:33;18.60;99.90
1578;DHT22;57623;53.608;10.004;2023-09-18T06:55:01;18.60;99.90
1578;DHT22;57623;53.608;10.004;2023-09-18T06:57:29;18.70;99.90
1578;DHT22;57623;53.608;10.004;2023-09-18T06:59:58;18.70;99.90
1578;DHT22;57623;53.608;10.004;2023-09-18T07:02:26;18.70;99.90
1578;DHT22;57623;53.608;10.004;2023-09-18T07:04:54;18.70;99.90
1578;DHT22;57623;53.608;10.004;2023-09-18T07:07:22;18.80;99.90
1578;DHT22;57623;53.608;10.004;2023-09-18T07:09:52;18.90;99.90
1578;DHT22;57623;53.608;10.004;2023-09-18T07:12:30;18.90;99.90
1578;DHT22;57623;53.608;10.004;2023-09-18T07:15:00;19.00;99.90
1578;DHT22;57623;53.608;10.004;2023-09-18T07:17:31;19.00;99.90
1578;DHT22;57623;53.608;10.004;2023-09-18T07:20:00;19.10;99.90
1578;DHT22;57623;53.608;10.004;2023-09-18T07:22:28;19.20;99.90
1578;DHT22;57623;53.608;10.004;2023-09-18T07:24:57;19.30;99.90
1578;DHT22;57623;53.608;10.004;2023-09-18T07:27:25;19.40;99.90
1578;DHT22;57623;53.608;10.004;2023-09-18T07:29:55;19.40;99.90
1578;DHT22;57623;53.608;10.004;2023-09-18T07:32:25;19.50;99.90
1578;DHT22;57623;53.608;10.004;2023-09-18T07:35:05;19.50;99.90
1578;DHT22;57623;53.608;10.004;2023-09-18T07:37:34;19.70;99.90
1578;DHT22;57623;53.608;10.004;2023-09-18T07:40:03;19.70;99.90
1578;DHT22;57623;53.608;10.004;2023-09-18T07:42:31;19.80;99.90
1578;DHT22;57623;53.608;10.004;2023-09-18T07:44:59;19.90;99.90
1578;DHT22;57623;53.608;10.004;2023-09-18T07:47:29;20.00;99.90
1578;DHT22;57623;53.608;10.004;2023-09-18T07:49:59;20.00;99.90
1578;DHT22;57623;53.608;10.004;2023-09-18T07:52:27;20.10;99.90
1578;DHT22;57623;53.608;10.004;2023-09-18T07:54:55;20.10;99.90
1578;DHT22;57623;53.608;10.004;2023-09-18T07:57:25;20.20;99.90
1578;DHT22;57623;53.608;10.004;2023-09-18T07:59:55;20.30;99.90
1578;DHT22;57623;53.608;10.004;2023-09-18T08:02:23;20.40;99.90
1578;DHT22;57623;53.608;10.004;2023-09-18T08:04:53;20.50;99.90
1578;DHT22;57623;53.608;10.004;2023-09-18T08:07:21;20.50;99.90
1578;DHT22;57623;53.608;10.004;2023-09-18T08:09:49;20.60;99.90
1578;DHT22;57623;53.608;10.004;2023-09-18T08:12:17;20.60;99.90
1578;DHT22;57623;53.608;10.004;2023-09-18T08:14:46;20.70;99.90
1578;DHT22;57623;53.608;10.004;2023-09-18T08:17:16;20.80;99.90
1578;DHT22;57623;53.608;10.004;2023-09-18T08:19:44;20.80;99.90
1578;DHT22;57623;53.608;10.004;2023-09-18T08:22:13;20.90;99.90
1578;DHT22;57623;53.608;10.004;2023-09-18T08:24:43;20.90;99.90
1578;DHT22;57623;53.608;10.004;2023-09-18T08:27:13;21.00;99.90
1578;DHT22;57623;53.608;10.004;2023-09-18T08:29:43;21.00;99.90
1578;DHT22;57623;53.608;10.004;2023-09-18T08:32:11;21.00;99.90
1578;DHT22;57623;53.608;10.004;2023-09-18T08:34:39;21.00;99.90
1578;DHT22;57623;53.608;10.004;2023-09-18T08:37:07;21.00;99.90
1578;DHT22;57623;53.608;10.004;2023-09-18T08:39:37;21.00;99.90
1578;DHT22;57623;53.608;10.004;2023-09-18T08:42:05;21.00;99.90
1578;DHT22;57623;53.608;10.004;2023-09-18T08:44:38;21.00;99.90
1578;DHT22;57623;53.608;10.004;2023-09-18T08:47:08;21.00;99.90
1578;DHT22;57623;53.608;10.004;2023-09-18T08:49:39;21.00;99.90
1578;DHT22;57623;53.608;10.004;2023-09-18T08:52:08;21.00;99.90
1578;DHT22;57623;53.608;10.004;2023-09-18T08:54:38;21.00;99.90
1578;DHT22;57623;53.608;10.004;2023-09-18T08:57:06;20.90;99.90
1578;DHT22;57623;53.608;10.004;2023-09-18T08:59:35;20.90;99.90
1578;DHT22;57623;53.608;10.004;2023-09-18T09:02:04;20.90;99.90
1578;DHT22;57623;53.608;10.004;2023-09-18T09:04:32;20.90;99.90
1578;DHT22;57623;53.608;10.004;2023-09-18T09:07:00;21.00;99.90
1578;DHT22;57623;53.608;10.004;2023-09-18T09:09:28;21.00;99.90
1578;DHT22;57623;53.608;10.004;2023-09-18T09:11:59;21.00;99.90
1578;DHT22;57623;53.608;10.004;2023-09-18T09:14:27;21.00;99.90
1578;DHT22;57623;53.608;10.004;2023-09-18T09:16:56;21.00;99.90
1578;DHT22;57623;53.608;10.004;2023-09-18T09:19:29;21.00;99.90
1578;DHT22;57623;53.608;10.004;2023-09-18T09:21:58;21.00;99.90
1578;DHT22;57623;53.608;10.004;2023-09-18T09:24:38;21.10;99.90
1578;DHT22;57623;53.608;10.004;2023-09-18T09:27:08;21.20;99.90
1578;DHT22;57623;53.608;10.004;2023-09-18T09:29:36;21.30;99.90
1578;DHT22;57623;53.608;10.004;2023-09-18T09:32:15;21.40;99.90
1578;DHT22;57623;53.608;10.004;2023-09-18T09:34:44;21.40;99.90
1578;DHT22;57623;53.608;10.004;2023-09-18T09:37:13;21.60;99.90
1578;DHT22;57623;53.608;10.004;2023-09-18T09:39:48;21.70;99.90
1578;DHT22;57623;53.608;10.004;2023-09-18T09:42:20;21.80;99.90
1578;DHT22;57623;53.608;10.004;2023-09-18T09:45:02;21.80;99.90
1578;DHT22;57623;53.608;10.004;2023-09-18T09:47:34;21.90;99.90
1578;DHT22;57623;53.608;10.004;2023-09-18T09:50:07;21.90;99.90
1578;DHT22;57623;53.608;10.004;2023-09-18T09:52:41;22.00;99.90
1578;DHT22;57623;53.608;10.004;2023-09-18T09:55:22;22.00;99.90
1578;DHT22;57623;53.608;10.004;2023-09-18T09:57:54;22.00;99.90
1578;DHT22;57623;53.608;10.004;2023-09-18T10:00:25;22.10;99.90
1578;DHT22;57623;53.608;10.004;2023-09-18T10:03:00;22.20;99.90
1578;DHT22;57623;53.608;10.004;2023-09-18T10:05:31;22.20;99.90
1578;DHT22;57623;53.608;10.004;2023-09-18T10:08:02;22.30;99.90
1578;DHT22;57623;53.608;10.004;2023-09-18T10:10:33;22.30;99.90
1578;DHT22;57623;53.608;10.004;2023-09-18T10:13:10;22.30;99.90
1578;DHT22;57623;53.608;10.004;2023-09-18T10:15:40;22.30;99.90
1578;DHT22;57623;53.608;10.004;2023-09-18T10:18:26;22.40;99.90
1578;DHT22;57623;53.608;10.004;2023-09-18T10:21:03;22.30;99.90
1578;DHT22;57623;53.608;10.004;2023-09-18T10:26:29;22.40;99.90
1578;DHT22;57623;53.608;10.004;2023-09-18T10:29:03;22.40;99.90
1578;DHT22;57623;53.608;10.004;2023-09-18T10:31:33;22.40;99.90
1578;DHT22;57623;53.608;10.004;2023-09-18T10:34:02;22.50;99.90
1578;DHT22;57623;53.608;10.004;2023-09-18T10:36:31;22.60;99.90
1578;DHT22;57623;53.608;10.004;2023-09-18T10:39:01;22.70;99.90
1578;DHT22;57623;53.608;10.004;2023-09-18T10:41:35;22.70;99.90
1578;DHT22;57623;53.608;10.004;2023-09-18T10:44:06;22.70;99.90
1578;DHT22;57623;53.608;10.004;2023-09-18T10:46:35;22.70;99.90
1578;DHT22;57623;53.608;10.004;2023-09-18T10:49:04;22.80;99.90
1578;DHT22;57623;53.608;10.004;2023-09-18T10:51:32;22.80;99.90
1578;DHT22;57623;53.608;10.004;2023-09-18T10:54:01;22.80;99.90
1578;DHT22;57623;53.608;10.004;2023-09-18T10:56:30;22.90;99.90
1578;DHT22;57623;53.608;10.004;2023-09-18T10:59:00;23.00;99.90
1578;DHT22;57623;53.608;10.004;2023-09-18T11:01:30;23.00;99.90
1578;DHT22;57623;53.608;10.004;2023-09-18T11:04:01;23.10;99.90
1578;DHT22;57623;53.608;10.004;2023-09-18T11:06:30;23.10;99.90
1578;DHT22;57623;53.608;10.004;2023-09-18T11:09:03;23.10;99.90
1578;DHT22;57623;53.608;10.004;2023-09-18T11:11:31;23.20;99.90
1578;DHT22;57623;53.608;10.004;2023-09-18T11:14:02;23.20;99.90
1578;DHT22;57623;53.608;10.004;2023-09-18T11:16:36;23.30;99.90
1578;DHT22;57623;53.608;10.004;2023-09-18T11:19:09;23.40;99.90
1578;DHT22;57623;53.608;10.004;2023-09-18T11:21:38;23.40;99.90
1578;DHT22;57623;53.608;10.004;2023-09-18T11:24:08;23.40;99.90
1578;DHT22;57623;53.608;10.004;2023-09-18T11:26:40;23.50;99.90
1578;DHT22;57623;53.608;10.004;2023-09-18T11:29:09;23.60;99.90
1578;DHT22;57623;53.608;10.004;2023-09-18T11:31:46;23.50;99.90
1578;DHT22;57623;53.608;10.004;2023-09-18T11:34:22;23.50;99.90
1578;DHT22;57623;53.608;10.004;2023-09-18T11:36:51;23.40;99.90
1578;DHT22;57623;53.608;10.004;2023-09-18T11:39:35;23.40;99.90
1578;DHT22;57623;53.608;10.004;2023-09-18T11:42:08;23.40;99.90
1578;DHT22;57623;53.608;10.004;2023-09-18T11:44:37;23.40;99.90
1578;DHT22;57623;53.608;10.004;2023-09-18T11:47:12;23.40;99.90
1578;DHT22;57623;53.608;10.004;2023-09-18T11:49:47;23.50;99.90
1578;DHT22;57623;53.608;10.004;2023-09-18T11:52:17;23.40;99.90
1578;DHT22;57623;53.608;10.004;2023-09-18T11:54:47;23.40;99.90
1578;DHT22;57623;53.608;10.004;2023-09-18T11:57:15;23.40;99.90
1578;DHT22;57623;53.608;10.004;2023-09-18T11:59:44;23.40;99.90
1578;DHT22;57623;53.608;10.004;2023-09-18T12:02:25;23.40;99.90
1578;DHT22;57623;53.608;10.004;2023-09-18T12:04:55;23.40;99.90
1578;DHT22;57623;53.608;10.004;2023-09-18T12:07:23;23.40;99.90
1578;DHT22;57623;53.608;10.004;2023-09-18T12:09:51;23.40;99.90
1578;DHT22;57623;53.608;10.004;2023-09-18T12:12:21;23.40;99.90
1578;DHT22;57623;53.608;10.004;2023-09-18T12:14:49;23.40;99.90
1578;DHT22;57623;53.608;10.004;2023-09-18T12:17:21;23.40;99.90
1578;DHT22;57623;53.608;10.004;2023-09-18T12:19:52;23.50;99.90
1578;DHT22;57623;53.608;10.004;2023-09-18T12:22:25;23.50;99.90
1578;DHT22;57623;53.608;10.004;2023-09-18T12:25:07;23.60;99.90
1578;DHT22;57623;53.608;10.004;2023-09-18T12:27:40;23.70;99.90
1578;DHT22;57623;53.608;10.004;2023-09-18T12:30:09;23.80;99.90
1578;DHT22;57623;53.608;10.004;2023-09-18T12:32:39;23.80;99.90
1578;DHT22;57623;53.608;10.004;2023-09-18T12:35:08;23.80;99.90
1578;DHT22;57623;53.608;10.004;2023-09-18T12:37:39;23.80;99.90
1578;DHT22;57623;53.608;10.004;2023-09-18T12:40:21;23.80;99.90
1578;DHT22;57623;53.608;10.004;2023-09-18T12:42:49;23.90;99.90
1578;DHT22;57623;53.608;10.004;2023-09-18T12:45:17;24.00;99.90
1578;DHT22;57623;53.608;10.004;2023-09-18T12:47:47;23.90;99.90
1578;DHT22;57623;53.608;10.004;2023-09-18T12:50:16;23.80;99.90
1578;DHT22;57623;53.608;10.004;2023-09-18T12:52:44;23.80;99.90
1578;DHT22;57623;53.608;10.004;2023-09-18T12:55:25;23.90;99.90
1578;DHT22;57623;53.608;10.004;2023-09-18T12:57:54;24.10;99.90
1578;DHT22;57623;53.608;10.004;2023-09-18T13:00:22;24.50;99.90
1578;DHT22;57623;53.608;10.004;2023-09-18T13:02:55;24.50;99.90
1578;DHT22;57623;53.608;10.004;2023-09-18T13:05:24;24.50;99.90
1578;DHT22;57623;53.608;10.004;2023-09-18T13:07:54;24.40;99.90
1578;DHT22;57623;53.608;10.004;2023-09-18T13:10:22;24.40;99.90
1578;DHT22;57623;53.608;10.004;2023-09-18T13:12:54;24.60;99.90
1578;DHT22;57623;53.608;10.004;2023-09-18T13:15:27;24.80;99.90
1578;DHT22;57623;53.608;10.004;2023-09-18T13:18:01;25.50;99.90
1578;DHT22;57623;53.608;10.004;2023-09-18T13:20:31;25.60;99.90
1578;DHT22;57623;53.608;10.004;2023-09-18T13:23:00;25.70;99.90
1578;DHT22;57623;53.608;10.004;2023-09-18T13:25:32;26.10;99.90
1578;DHT22;57623;53.608;10.004;2023-09-18T13:28:02;26.20;99.90
1578;DHT22;57623;53.608;10.004;2023-09-18T13:30:31;25.90;99.90
1578;DHT22;57623;53.608;10.004;2023-09-18T13:33:04;25.50;99.90
1578;DHT22;57623;53.608;10.004;2023-09-18T13:35:33;25.10;99.90
1578;DHT22;57623;53.608;10.004;2023-09-18T13:38:02;24.80;99.90
1578;DHT22;57623;53.608;10.004;2023-09-18T13:40:32;24.60;99.90
1578;DHT22;57623;53.608;10.004;2023-09-18T13:43:00;24.40;99.90
1578;DHT22;57623;53.608;10.004;2023-09-18T13:45:30;24.30;99.90
1578;DHT22;57623;53.608;10.004;2023-09-18T13:47:58;24.20;99.90
1578;DHT22;57623;53.608;10.004;2023-09-18T13:50:28;24.20;99.90
1578;DHT22;57623;53.608;10.004;2023-09-18T13:52:56;24.20;99.90
1578;DHT22;57623;53.608;10.004;2023-09-18T13:55:26;24.20;99.90
1578;DHT22;57623;53.608;10.004;2023-09-18T13:57:54;24.10;99.90
1578;DHT22;57623;53.608;10.004;2023-09-18T14:00:22;24.00;99.90
1578;DHT22;57623;53.608;10.004;2023-09-18T14:02:52;24.00;99.90
1578;DHT22;57623;53.608;10.004;2023-09-18T14:05:24;23.90;99.90
1578;DHT22;57623;53.608;10.004;2023-09-18T14:07:54;23.80;99.90
1578;DHT22;57623;53.608;10.004;2023-09-18T14:10:27;23.80;99.90
1578;DHT22;57623;53.608;10.004;2023-09-18T14:12:55;23.80;99.90
1578;DHT22;57623;53.608;10.004;2023-09-18T14:15:24;23.70;99.90
1578;DHT22;57623;53.608;10.004;2023-09-18T14:17:52;23.60;99.90
1578;DHT22;57623;53.608;10.004;2023-09-18T14:20:21;23.60;99.90
1578;DHT22;57623;53.608;10.004;2023-09-18T14:22:49;23.60;99.90
1578;DHT22;57623;53.608;10.004;2023-09-18T14:25:19;23.60;99.90
1578;DHT22;57623;53.608;10.004;2023-09-18T14:27:49;23.50;99.90
1578;DHT22;57623;53.608;10.004;2023-09-18T14:30:17;23.50;99.90
1578;DHT22;57623;53.608;10.004;2023-09-18T14:32:46;23.60;99.90
1578;DHT22;57623;53.608;10.004;2023-09-18T14:35:15;23.60;99.90
1578;DHT22;57623;53.608;10.004;2023-09-18T14:37:43;23.60;99.90
1578;DHT22;57623;53.608;10.004;2023-09-18T14:40:11;23.60;99.90
1578;DHT22;57623;53.608;10.004;2023-09-18T14:42:41;23.70;99.90
1578;DHT22;57623;53.608;10.004;2023-09-18T14:45:09;23.70;99.90
1578;DHT22;57623;53.608;10.004;2023-09-18T14:47:39;23.80;99.90
1578;DHT22;57623;53.608;10.004;2023-09-18T14:50:07;23.80;99.90
1578;DHT22;57623;53.608;10.004;2023-09-18T14:52:36;23.90;99.90
1578;DHT22;57623;53.608;10.004;2023-09-18T14:55:04;24.00;99.90
1578;DHT22;57623;53.608;10.004;2023-09-18T14:57:32;24.00;99.90
1578;DHT22;57623;53.608;10.004;2023-09-18T15:00:02;24.10;99.90
1578;DHT22;57623;53.608;10.004;2023-09-18T15:02:33;24.20;99.90
1578;DHT22;57623;53.608;10.004;2023-09-18T15:05:02;24.10;99.90
1578;DHT22;57623;53.608;10.004;2023-09-18T15:07:33;24.00;99.90
1578;DHT22;57623;53.608;10.004;2023-09-18T15:10:00;23.90;99.90
1578;DHT22;57623;53.608;10.004;2023-09-18T15:12:32;23.80;99.90
1578;DHT22;57623;53.608;10.004;2023-09-18T15:15:01;23.80;99.90
1578;DHT22;57623;53.608;10.004;2023-09-18T15:17:29;23.80;99.90
1578;DHT22;57623;53.608;10.004;2023-09-18T15:19:57;23.70;99.90
1578;DHT22;57623;53.608;10.004;2023-09-18T15:22:25;23.70;99.90
1578;DHT22;57623;53.608;10.004;2023-09-18T15:24:54;23.80;99.90
1578;DHT22;57623;53.608;10.004;2023-09-18T15:27:26;23.80;99.90
1578;DHT22;57623;53.608;10.004;2023-09-18T15:29:54;23.80;99.90
1578;DHT22;57623;53.608;10.004;2023-09-18T15:32:23;23.80;99.90
1578;DHT22;57623;53.608;10.004;2023-09-18T15:34:52;23.80;99.90
1578;DHT22;57623;53.608;10.004;2023-09-18T15:37:21;23.80;99.90
1578;DHT22;57623;53.608;10.004;2023-09-18T15:39:49;23.80;99.90
1578;DHT22;57623;53.608;10.004;2023-09-18T15:42:17;23.80;99.90
1578;DHT22;57623;53.608;10.004;2023-09-18T15:44:45;23.80;99.90
1578;DHT22;57623;53.608;10.004;2023-09-18T15:47:13;23.80;99.90
1578;DHT22;57623;53.608;10.004;2023-09-18T15:49:43;23.70;99.90